createdAt,value
2023-01-21T00:00:45.598Z,-1.49
2023-01-21T00:03:12.953Z,-1.52
2023-01-21T00:05:39.917Z,-1.56
2023-01-21T00:08:06.478Z,-1.59
2023-01-21T00:10:33.842Z,-1.60
2023-01-21T00:13:00.404Z,-1.63
2023-01-21T00:15:27.186Z,-1.62
2023-01-21T00:17:54.103Z,-1.63
2023-01-21T00:20:21.108Z,-1.61
2023-01-21T00:22:47.535Z,-1.56
2023-01-21T00:25:14.222Z,-1.45
2023-01-21T00:27:41.123Z,-1.30
2023-01-21T00:30:08.429Z,-1.15
2023-01-21T00:32:34.999Z,-0.99
2023-01-21T00:35:01.472Z,-0.87
2023-01-21T00:37:28.153Z,-0.74
2023-01-21T00:39:54.658Z,-0.61
2023-01-21T00:42:21.120Z,-0.50
2023-01-21T00:44:47.788Z,-0.39
2023-01-21T00:47:14.268Z,-0.28
2023-01-21T00:49:40.899Z,-0.19
2023-01-21T00:52:07.565Z,-0.11
2023-01-21T00:54:34.143Z,-0.02
2023-01-21T00:57:00.647Z,0.06
2023-01-21T00:59:28.157Z,0.15
2023-01-21T01:01:54.789Z,0.22
2023-01-21T01:04:23.009Z,0.30
2023-01-21T01:06:49.804Z,0.35
2023-01-21T01:09:16.583Z,0.40
2023-01-21T01:11:43.130Z,0.47
2023-01-21T01:14:09.620Z,0.53
2023-01-21T01:16:36.065Z,0.55
2023-01-21T01:19:02.819Z,0.60
2023-01-21T01:21:29.563Z,0.61
2023-01-21T01:24:00.605Z,0.64
2023-01-21T01:26:27.264Z,0.68
2023-01-21T01:28:54.000Z,0.70
2023-01-21T01:31:21.554Z,0.71
2023-01-21T01:33:48.688Z,0.71
2023-01-21T01:36:18.415Z,0.72
2023-01-21T01:38:45.764Z,0.74
2023-01-21T01:41:17.662Z,0.76
2023-01-21T01:44:06.789Z,0.73
2023-01-21T01:46:36.896Z,0.75
2023-01-21T01:49:17.167Z,0.75
2023-01-21T01:51:48.339Z,0.78
2023-01-21T01:54:20.020Z,0.77
2023-01-21T01:56:50.729Z,0.78
2023-01-21T01:59:17.868Z,0.75
2023-01-21T02:01:44.521Z,0.76
2023-01-21T02:04:17.300Z,0.77
2023-01-21T02:06:45.572Z,0.81
2023-01-21T02:09:12.217Z,0.81
2023-01-21T02:11:39.516Z,0.86
2023-01-21T02:14:06.366Z,0.86
2023-01-21T02:17:20.609Z,0.89
2023-01-21T02:20:28.950Z,0.91
2023-01-21T02:23:20.628Z,0.92
2023-01-21T02:26:28.764Z,0.92
2023-01-21T02:29:30.500Z,0.94
2023-01-21T02:31:59.904Z,0.95
2023-01-21T02:35:02.346Z,0.96
2023-01-21T02:37:42.735Z,1.00
2023-01-21T02:40:25.494Z,1.01
2023-01-21T02:43:08.306Z,1.07
2023-01-21T02:45:37.810Z,1.11
2023-01-21T02:48:20.204Z,1.14
2023-01-21T02:50:50.117Z,1.20
2023-01-21T02:53:24.018Z,1.24
2023-01-21T02:55:50.742Z,1.29
2023-01-21T02:58:22.494Z,1.33
2023-01-21T03:01:25.752Z,1.34
2023-01-21T03:04:48.901Z,1.39
2023-01-21T03:07:33.759Z,1.42
2023-01-21T03:10:12.112Z,1.47
2023-01-21T03:12:49.911Z,1.50
2023-01-21T03:15:44.216Z,1.53
2023-01-21T03:18:24.498Z,1.55
2023-01-21T03:20:56.354Z,1.57
2023-01-21T03:23:30.326Z,1.60
2023-01-21T03:25:59.431Z,1.63
2023-01-21T03:28:29.427Z,1.65
2023-01-21T03:31:06.205Z,1.65
2023-01-21T03:33:36.772Z,1.65
2023-01-21T03:36:11.570Z,1.66
2023-01-21T03:38:45.259Z,1.65
2023-01-21T03:41:17.618Z,1.67
2023-01-21T03:43:45.582Z,1.68
2023-01-21T03:46:20.971Z,1.70
2023-01-21T03:48:59.695Z,1.71
2023-01-21T03:51:33.719Z,1.71
2023-01-21T03:54:00.510Z,1.73
2023-01-21T03:56:28.062Z,1.74
2023-01-21T03:58:55.239Z,1.75
2023-01-21T04:01:21.993Z,1.73
2023-01-21T04:03:48.823Z,1.73
2023-01-21T04:06:18.967Z,1.72
2023-01-21T04:08:46.012Z,1.71
2023-01-21T04:11:12.769Z,1.71
2023-01-21T04:13:39.649Z,1.68
2023-01-21T04:16:06.708Z,1.66
2023-01-21T04:18:33.198Z,1.64
2023-01-21T04:21:00.103Z,1.65
2023-01-21T04:23:26.798Z,1.65
2023-01-21T04:25:53.456Z,1.64
2023-01-21T04:28:20.250Z,1.65
2023-01-21T04:30:48.113Z,1.65
2023-01-21T04:33:14.786Z,1.64
2023-01-21T04:35:41.688Z,1.65
2023-01-21T04:38:08.260Z,1.65
2023-01-21T04:40:35.108Z,1.65
2023-01-21T04:43:01.611Z,1.63
2023-01-21T04:45:28.091Z,1.60
2023-01-21T04:47:54.637Z,1.57
2023-01-21T04:50:21.190Z,1.54
2023-01-21T04:52:47.685Z,1.51
2023-01-21T04:55:14.203Z,1.47
2023-01-21T04:57:40.673Z,1.40
2023-01-21T05:00:08.596Z,1.28
2023-01-21T05:02:35.527Z,1.15
2023-01-21T05:05:02.156Z,1.00
2023-01-21T05:07:28.833Z,0.89
2023-01-21T05:09:55.299Z,0.87
2023-01-21T05:12:21.812Z,0.91
2023-01-21T05:14:48.253Z,1.03
2023-01-21T05:17:14.735Z,1.08
2023-01-21T05:19:41.279Z,1.11
2023-01-21T05:22:07.759Z,1.13
2023-01-21T05:24:34.489Z,1.14
2023-01-21T05:27:01.820Z,1.14
2023-01-21T05:29:28.419Z,1.11
2023-01-21T05:31:55.069Z,1.08
2023-01-21T05:34:21.745Z,1.05
2023-01-21T05:36:48.196Z,1.00
2023-01-21T05:39:14.915Z,0.90
2023-01-21T05:41:41.490Z,0.82
2023-01-21T05:44:09.774Z,0.75
2023-01-21T05:46:36.338Z,0.71
2023-01-21T05:49:02.985Z,0.70
2023-01-21T05:51:29.458Z,0.65
2023-01-21T05:53:56.034Z,0.63
2023-01-21T05:56:22.750Z,0.62
2023-01-21T05:58:49.267Z,0.65
2023-01-21T06:01:15.708Z,0.65
2023-01-21T06:03:44.412Z,0.63
2023-01-21T06:06:10.959Z,0.66
2023-01-21T06:08:37.479Z,0.68
2023-01-21T06:11:04.001Z,0.68
2023-01-21T06:13:30.540Z,0.64
2023-01-21T06:15:57.149Z,0.60
2023-01-21T06:18:24.701Z,0.50
2023-01-21T06:20:51.270Z,0.43
2023-01-21T06:23:17.873Z,0.36
2023-01-21T06:25:44.487Z,0.35
2023-01-21T06:28:11.897Z,0.30
2023-01-21T06:30:38.401Z,0.28
2023-01-21T06:33:04.971Z,0.23
2023-01-21T06:35:31.600Z,0.26
2023-01-21T06:37:58.140Z,0.25
2023-01-21T06:40:25.605Z,0.23
2023-01-21T06:42:53.825Z,0.20
2023-01-21T06:45:20.362Z,0.24
2023-01-21T06:47:47.048Z,0.29
2023-01-21T06:50:16.035Z,0.36
2023-01-21T06:52:44.486Z,0.43
2023-01-21T06:55:11.132Z,0.50
2023-01-21T06:57:38.543Z,0.57
2023-01-21T07:00:06.484Z,0.64
2023-01-21T07:02:33.040Z,0.71
2023-01-21T07:04:59.533Z,0.78
2023-01-21T07:07:26.609Z,0.83
2023-01-21T07:13:47.025Z,0.93
2023-01-21T07:16:13.680Z,0.97
2023-01-21T07:18:40.129Z,0.99
2023-01-21T07:21:06.542Z,1.01
2023-01-21T07:23:33.012Z,1.02
2023-01-21T07:25:59.467Z,1.05
2023-01-21T07:28:25.968Z,1.08
2023-01-21T07:30:52.482Z,1.09
2023-01-21T07:33:18.988Z,1.11
2023-01-21T07:35:45.494Z,1.13
2023-01-21T07:38:11.952Z,1.16
2023-01-21T07:40:38.431Z,1.16
2023-01-21T07:43:04.968Z,1.18
2023-01-21T07:45:31.573Z,1.17
2023-01-21T07:47:59.115Z,1.19
2023-01-21T07:50:25.884Z,1.21
2023-01-21T07:52:55.282Z,1.23
2023-01-21T07:55:22.858Z,1.24
2023-01-21T07:57:49.293Z,1.26
2023-01-21T08:00:16.136Z,1.26
2023-01-21T08:02:42.749Z,1.27
2023-01-21T08:05:10.096Z,1.27
2023-01-21T08:07:36.758Z,1.24
2023-01-21T08:10:03.503Z,1.25
2023-01-21T08:12:29.949Z,1.23
2023-01-21T08:14:56.411Z,1.24
2023-01-21T08:17:23.007Z,1.29
2023-01-21T08:19:49.951Z,1.33
2023-01-21T08:22:16.433Z,1.36
2023-01-21T08:24:42.896Z,1.37
2023-01-21T08:27:09.565Z,1.37
2023-01-21T08:29:36.089Z,1.35
2023-01-21T08:32:02.602Z,1.34
2023-01-21T08:34:29.123Z,1.30
2023-01-21T08:36:55.553Z,1.27
2023-01-21T08:39:22.104Z,1.23
2023-01-21T08:41:50.994Z,1.23
2023-01-21T08:44:17.555Z,1.23
2023-01-21T08:46:44.104Z,1.19
2023-01-21T08:49:10.581Z,1.13
2023-01-21T08:51:37.141Z,1.10
2023-01-21T08:54:06.503Z,1.09
2023-01-21T08:56:33.167Z,1.07
2023-01-21T08:59:00.102Z,1.07
2023-01-21T09:01:26.940Z,1.09
2023-01-21T09:03:57.587Z,1.10
2023-01-21T09:06:26.135Z,1.10
2023-01-21T09:08:53.010Z,1.02
2023-01-21T09:11:19.693Z,0.97
2023-01-21T09:13:46.554Z,0.93
2023-01-21T09:16:18.977Z,0.89
2023-01-21T09:18:46.227Z,0.88
2023-01-21T09:21:13.862Z,0.90
2023-01-21T09:23:41.282Z,0.92
2023-01-21T09:26:13.149Z,0.98
2023-01-21T09:28:42.341Z,1.01
2023-01-21T09:31:14.672Z,1.08
2023-01-21T09:33:43.822Z,1.12
2023-01-21T09:36:24.772Z,1.15
2023-01-21T09:38:51.325Z,1.22
2023-01-21T09:41:25.329Z,1.27
2023-01-21T09:43:57.550Z,1.35
2023-01-21T09:46:36.778Z,1.44
2023-01-21T09:49:06.517Z,1.52
2023-01-21T09:51:46.018Z,1.60
2023-01-21T09:54:21.397Z,1.64
2023-01-21T09:57:15.212Z,1.64
2023-01-21T09:59:57.709Z,1.66
2023-01-21T10:02:54.341Z,1.71
2023-01-21T10:05:45.349Z,1.75
2023-01-21T10:08:44.201Z,1.74
2023-01-21T10:11:48.249Z,1.74
2023-01-21T10:14:27.029Z,1.77
2023-01-21T10:17:25.757Z,1.83
2023-01-21T10:20:12.079Z,1.94
2023-01-21T10:22:48.012Z,2.02
2023-01-21T10:25:32.570Z,2.07
2023-01-21T10:28:05.105Z,2.10
2023-01-21T10:30:40.072Z,2.16
2023-01-21T10:33:17.088Z,2.20
2023-01-21T10:36:11.636Z,2.29
2023-01-21T10:38:48.853Z,2.33
2023-01-21T10:41:27.926Z,2.36
2023-01-21T10:44:14.612Z,2.45
2023-01-21T10:46:56.432Z,2.49
2023-01-21T10:49:51.087Z,2.53
2023-01-21T10:52:23.581Z,2.62
2023-01-21T10:55:07.655Z,2.71
2023-01-21T10:57:54.981Z,2.79
2023-01-21T11:00:26.028Z,2.83
2023-01-21T11:02:57.302Z,2.84
2023-01-21T11:05:26.243Z,2.91
2023-01-21T11:07:54.178Z,2.96
2023-01-21T11:10:24.175Z,3.00
2023-01-21T11:12:51.287Z,2.93
2023-01-21T11:15:20.299Z,2.82
2023-01-21T11:17:50.264Z,2.73
2023-01-21T11:20:21.957Z,2.64
2023-01-21T11:22:49.024Z,2.60
2023-01-21T11:25:24.495Z,2.59
2023-01-21T11:27:50.959Z,2.63
2023-01-21T11:30:50.619Z,2.69
2023-01-21T11:33:27.103Z,2.74
2023-01-21T11:35:55.179Z,2.79
2023-01-21T11:38:34.551Z,2.85
2023-01-21T11:41:06.067Z,2.91
2023-01-21T11:43:35.489Z,2.97
2023-01-21T11:46:21.597Z,3.03
2023-01-21T11:48:48.128Z,3.10
2023-01-21T11:51:14.986Z,3.19
2023-01-21T11:53:41.531Z,3.25
2023-01-21T11:56:08.513Z,3.26
2023-01-21T11:58:37.334Z,3.27
2023-01-21T12:01:08.371Z,3.28
2023-01-21T12:03:40.987Z,3.29
2023-01-21T12:06:08.381Z,3.31
2023-01-21T12:08:37.614Z,3.34
2023-01-21T12:11:07.177Z,3.31
2023-01-21T12:13:55.426Z,3.31
2023-01-21T12:16:30.589Z,3.32
2023-01-21T12:18:59.683Z,3.35
2023-01-21T12:21:54.733Z,3.33
2023-01-21T12:24:35.458Z,3.37
2023-01-21T12:27:20.446Z,3.45
2023-01-21T12:30:12.063Z,3.53
2023-01-21T12:32:42.938Z,3.63
2023-01-21T12:35:16.457Z,3.70
2023-01-21T12:37:46.829Z,3.77
2023-01-21T12:40:19.399Z,3.82
2023-01-21T12:42:50.291Z,3.86
2023-01-21T12:45:27.772Z,3.93
2023-01-21T12:47:59.416Z,3.94
2023-01-21T12:50:31.895Z,3.93
2023-01-21T12:53:25.470Z,3.89
2023-01-21T12:56:20.807Z,3.86
2023-01-21T12:58:59.426Z,3.86
2023-01-21T13:01:41.366Z,3.86
2023-01-21T13:04:23.777Z,3.87
2023-01-21T13:07:08.120Z,3.87
2023-01-21T13:09:57.296Z,3.87
2023-01-21T13:12:27.605Z,3.89
2023-01-21T13:15:01.661Z,3.89
2023-01-21T13:17:32.089Z,3.83
2023-01-21T13:19:59.242Z,3.82
2023-01-21T13:23:01.872Z,3.82
2023-01-21T13:25:37.275Z,3.82
2023-01-21T13:28:13.892Z,3.75
2023-01-21T13:30:47.057Z,3.71
2023-01-21T13:33:42.095Z,3.72
2023-01-21T13:36:25.554Z,3.72
2023-01-21T13:39:05.465Z,3.69
2023-01-21T13:41:56.602Z,3.70
2023-01-21T13:44:36.246Z,3.71
2023-01-21T13:47:09.220Z,3.74
2023-01-21T13:50:18.100Z,3.70
2023-01-21T13:52:56.824Z,3.69
2023-01-21T13:55:37.848Z,3.69
2023-01-21T13:58:22.721Z,3.68
2023-01-21T14:00:58.815Z,3.61
2023-01-21T14:03:39.554Z,3.57
2023-01-21T14:06:09.245Z,3.57
2023-01-21T14:09:12.710Z,3.56
2023-01-21T14:11:45.712Z,3.55
2023-01-21T14:14:45.263Z,3.50
2023-01-21T14:17:27.000Z,3.45
2023-01-21T14:20:21.541Z,3.39
2023-01-21T14:23:38.736Z,3.33
2023-01-21T14:26:29.919Z,3.27
2023-01-21T14:29:06.623Z,3.24
2023-01-21T14:31:42.444Z,3.19
2023-01-21T14:34:41.997Z,3.18
2023-01-21T14:37:17.812Z,3.16
2023-01-21T14:39:57.661Z,3.13
2023-01-21T14:42:41.066Z,3.09
2023-01-21T14:45:08.303Z,3.06
2023-01-21T14:47:34.817Z,3.02
2023-01-21T14:50:01.555Z,3.01
2023-01-21T14:52:31.961Z,2.96
2023-01-21T14:54:59.299Z,2.94
2023-01-21T14:57:28.461Z,2.92
2023-01-21T15:00:04.449Z,2.91
2023-01-21T15:02:41.301Z,2.91
2023-01-21T15:05:09.204Z,2.92
2023-01-21T15:07:40.009Z,2.92
2023-01-21T15:10:19.584Z,2.94
2023-01-21T15:12:56.291Z,2.94
2023-01-21T15:15:34.233Z,2.94
2023-01-21T15:18:04.379Z,2.93
2023-01-21T15:20:39.739Z,2.94
2023-01-21T15:23:29.962Z,2.93
2023-01-21T15:26:11.187Z,2.92
2023-01-21T15:28:43.704Z,2.90
2023-01-21T15:31:23.472Z,2.88
2023-01-21T15:33:55.394Z,2.85
2023-01-21T15:36:31.162Z,2.82
2023-01-21T15:39:02.248Z,2.77
2023-01-21T15:41:57.189Z,2.74
2023-01-21T15:44:32.959Z,2.72
2023-01-21T15:47:18.769Z,2.71
2023-01-21T15:49:59.986Z,2.70
2023-01-21T15:52:57.281Z,2.67
2023-01-21T15:55:39.512Z,2.66
2023-01-21T15:58:11.748Z,2.64
2023-01-21T16:00:50.040Z,2.61
2023-01-21T16:03:29.605Z,2.58
2023-01-21T16:06:17.557Z,2.57
2023-01-21T16:09:22.466Z,2.54
2023-01-21T16:12:11.376Z,2.53
2023-01-21T16:14:52.566Z,2.52
2023-01-21T16:17:44.758Z,2.52
2023-01-21T16:20:13.205Z,2.50
2023-01-21T16:22:46.901Z,2.50
2023-01-21T16:25:16.660Z,2.49
2023-01-21T16:27:48.820Z,2.49
2023-01-21T16:30:20.266Z,2.47
2023-01-21T16:32:47.107Z,2.48
2023-01-21T16:35:13.893Z,2.49
2023-01-21T16:37:43.501Z,2.50
2023-01-21T16:40:19.331Z,2.50
2023-01-21T16:42:45.986Z,2.49
2023-01-21T16:45:18.823Z,2.48
2023-01-21T16:47:59.474Z,2.47
2023-01-21T16:50:28.922Z,2.49
2023-01-21T16:52:57.286Z,2.48
2023-01-21T16:55:26.447Z,2.49
2023-01-21T16:57:55.432Z,2.49
2023-01-21T17:00:23.364Z,2.49
2023-01-21T17:02:50.041Z,2.50
2023-01-21T17:05:17.046Z,2.53
2023-01-21T17:07:47.452Z,2.53
2023-01-21T17:10:24.425Z,2.54
2023-01-21T17:13:01.032Z,2.55
2023-01-21T17:15:41.736Z,2.56
2023-01-21T17:18:22.525Z,2.57
2023-01-21T17:20:53.991Z,2.60
2023-01-21T17:23:30.078Z,2.61
2023-01-21T17:26:03.506Z,2.62
2023-01-21T17:28:37.702Z,2.62
2023-01-21T17:31:31.469Z,2.62
2023-01-21T17:34:20.189Z,2.66
2023-01-21T17:36:49.179Z,2.69
2023-01-21T17:39:44.795Z,2.69
2023-01-21T17:42:21.543Z,2.71
2023-01-21T17:45:06.795Z,2.73
2023-01-21T17:47:49.898Z,2.74
2023-01-21T17:50:32.084Z,2.75
2023-01-21T17:53:01.623Z,2.75
2023-01-21T17:55:38.645Z,2.77
2023-01-21T17:58:30.943Z,2.78
2023-01-21T18:01:00.555Z,2.78
2023-01-21T18:03:27.459Z,2.76
2023-01-21T18:05:55.144Z,2.74
2023-01-21T18:08:21.719Z,2.73
2023-01-21T18:10:48.253Z,2.72
2023-01-21T18:13:19.775Z,2.69
2023-01-21T18:15:51.296Z,2.69
2023-01-21T18:18:21.920Z,2.72
2023-01-21T18:20:48.376Z,2.73
2023-01-21T18:23:15.284Z,2.73
2023-01-21T18:25:42.490Z,2.70
2023-01-21T18:28:18.612Z,2.68
2023-01-21T18:30:46.201Z,2.68
2023-01-21T18:33:13.174Z,2.66
2023-01-21T18:35:42.772Z,2.65
2023-01-21T18:38:27.713Z,2.63
2023-01-21T18:40:57.678Z,2.63
2023-01-21T18:43:25.030Z,2.62
2023-01-21T18:45:53.989Z,2.59
2023-01-21T18:48:27.479Z,2.57
2023-01-21T18:50:54.438Z,2.59
2023-01-21T18:53:21.063Z,2.58
2023-01-21T18:55:50.765Z,2.59
2023-01-21T18:58:17.425Z,2.60
2023-01-21T19:00:44.009Z,2.62
2023-01-21T19:03:13.765Z,2.61
2023-01-21T19:05:42.376Z,2.62
2023-01-21T19:08:19.445Z,2.61
2023-01-21T19:10:46.110Z,2.59
2023-01-21T19:13:12.543Z,2.59
2023-01-21T19:15:39.300Z,2.60
2023-01-21T19:18:13.965Z,2.60
2023-01-21T19:20:41.917Z,2.61
2023-01-21T19:23:18.141Z,2.63
2023-01-21T19:25:50.281Z,2.62
2023-01-21T19:28:16.934Z,2.63
2023-01-21T19:30:45.138Z,2.62
2023-01-21T19:33:12.719Z,2.60
2023-01-21T19:35:42.895Z,2.57
2023-01-21T19:38:16.557Z,2.54
2023-01-21T19:40:43.057Z,2.51
2023-01-21T19:43:13.187Z,2.27
2023-01-21T19:45:39.657Z,2.05
2023-01-21T19:48:12.110Z,1.91
2023-01-21T19:50:39.050Z,1.85
2023-01-21T19:53:06.075Z,1.74
2023-01-21T19:55:35.643Z,1.62
2023-01-21T19:58:04.564Z,1.56
2023-01-21T20:00:34.104Z,1.51
2023-01-21T20:03:01.073Z,1.49
2023-01-21T20:05:29.953Z,1.48
2023-01-21T20:07:56.511Z,1.47
2023-01-21T20:10:26.683Z,1.48
2023-01-21T20:12:53.472Z,1.54
2023-01-21T20:15:29.078Z,1.54
2023-01-21T20:17:57.707Z,1.58
2023-01-21T20:20:29.556Z,1.61
2023-01-21T20:22:56.526Z,1.66
2023-01-21T20:25:25.862Z,1.65
2023-01-21T20:27:56.527Z,1.66
2023-01-21T20:30:26.891Z,1.63
2023-01-21T20:32:54.356Z,1.65
2023-01-21T20:35:23.036Z,1.65
2023-01-21T20:37:52.598Z,1.68
2023-01-21T20:40:28.095Z,1.54
2023-01-21T20:42:57.622Z,1.47
2023-01-21T20:45:33.310Z,1.40
2023-01-21T20:48:03.013Z,1.33
2023-01-21T20:50:33.533Z,1.34
2023-01-21T20:53:00.085Z,1.31
2023-01-21T20:55:27.988Z,1.28
2023-01-21T20:57:54.847Z,1.26
2023-01-21T21:00:23.377Z,1.26
2023-01-21T21:02:50.131Z,1.30
2023-01-21T21:05:18.108Z,1.31
2023-01-21T21:07:45.213Z,1.31
2023-01-21T21:10:25.317Z,1.33
2023-01-21T21:12:52.821Z,1.32
2023-01-21T21:15:20.244Z,1.32
2023-01-21T21:17:47.269Z,1.33
2023-01-21T21:20:32.091Z,1.34
2023-01-21T21:22:58.572Z,1.30
2023-01-21T21:25:27.648Z,1.27
2023-01-21T21:27:55.293Z,1.25
2023-01-21T21:30:27.810Z,1.22
2023-01-21T21:32:56.604Z,1.18
2023-01-21T21:35:28.631Z,1.19
2023-01-21T21:37:58.511Z,1.21
2023-01-21T21:40:27.153Z,1.20
2023-01-21T21:43:12.868Z,1.21
2023-01-21T21:45:59.933Z,1.22
2023-01-21T21:48:38.674Z,1.21
2023-01-21T21:51:06.316Z,1.15
2023-01-21T21:53:32.933Z,1.17
2023-01-21T21:56:13.331Z,1.12
2023-01-21T21:58:41.953Z,1.09
2023-01-21T22:01:16.683Z,1.08
2023-01-21T22:03:44.140Z,1.03
2023-01-21T22:06:11.536Z,1.03
2023-01-21T22:08:41.353Z,1.00
2023-01-21T22:11:12.964Z,1.00
2023-01-21T22:13:40.531Z,1.00
2023-01-21T22:16:10.574Z,1.00
2023-01-21T22:18:37.166Z,1.04
2023-01-21T22:21:10.979Z,1.03
2023-01-21T22:23:37.945Z,1.03
2023-01-21T22:26:06.768Z,1.02
2023-01-21T22:28:35.190Z,1.04
2023-01-21T22:31:04.152Z,1.07
2023-01-21T22:33:32.268Z,1.04
2023-01-21T22:36:01.906Z,1.01
2023-01-21T22:38:28.419Z,1.03
2023-01-21T22:40:55.805Z,1.00
2023-01-21T22:43:22.377Z,1.01
2023-01-21T22:45:49.292Z,1.00
2023-01-21T22:48:16.394Z,1.01
2023-01-21T22:50:46.499Z,1.00
2023-01-21T22:53:13.516Z,1.01
2023-01-21T22:55:40.099Z,1.00
2023-01-21T22:58:07.106Z,1.02
2023-01-21T23:00:39.499Z,0.97
2023-01-21T23:03:07.543Z,0.96
2023-01-21T23:05:35.203Z,0.96
2023-01-21T23:08:01.765Z,0.99
2023-01-21T23:10:28.344Z,0.99
2023-01-21T23:12:54.886Z,1.00
2023-01-21T23:15:22.955Z,1.00
2023-01-21T23:17:51.285Z,1.01
2023-01-21T23:20:18.173Z,1.02
2023-01-21T23:22:45.221Z,1.03
2023-01-21T23:25:13.623Z,1.06
2023-01-21T23:27:41.159Z,1.08
2023-01-21T23:30:10.439Z,1.08
2023-01-21T23:32:37.073Z,1.09
2023-01-21T23:35:03.784Z,1.13
2023-01-21T23:37:30.322Z,1.15
2023-01-21T23:39:56.805Z,1.16
2023-01-21T23:42:23.708Z,1.16
2023-01-21T23:44:50.685Z,1.18
2023-01-21T23:47:17.857Z,1.21
2023-01-21T23:49:44.446Z,1.24
2023-01-21T23:52:12.451Z,1.26
2023-01-21T23:54:40.254Z,1.24
2023-01-21T23:57:07.436Z,1.20
2023-01-21T23:59:35.537Z,1.20
